createdAt,value
2023-12-09T00:02:20.851Z,63.15
2023-12-09T00:04:47.568Z,52.92
2023-12-09T00:07:14.316Z,52.58
2023-12-09T00:09:41.129Z,54.28
2023-12-09T00:12:08.005Z,54.45
2023-12-09T00:14:34.804Z,50.53
2023-12-09T00:17:01.613Z,48.92
2023-12-09T00:19:28.478Z,45.70
2023-12-09T00:21:55.241Z,47.88
2023-12-09T00:24:22.070Z,43.75
2023-12-09T00:26:48.841Z,43.92
2023-12-09T00:29:15.624Z,40.78
2023-12-09T00:31:44.622Z,45.35
2023-12-09T00:34:11.515Z,39.95
2023-12-09T00:36:38.739Z,37.47
2023-12-09T00:39:06.366Z,37.45
2023-12-09T00:41:33.153Z,31.98
2023-12-09T00:43:59.800Z,34.30
2023-12-09T00:46:26.521Z,35.13
2023-12-09T00:48:53.354Z,34.80
2023-12-09T00:51:20.670Z,29.58
2023-12-09T00:53:47.420Z,30.08
2023-12-09T00:56:14.182Z,33.75
2023-12-09T00:58:41.192Z,28.60
2023-12-09T01:01:08.051Z,30.58
2023-12-09T01:03:37.158Z,32.35
2023-12-09T01:06:06.336Z,39.03
2023-12-09T01:08:33.323Z,38.88
2023-12-09T01:11:00.008Z,35.65
2023-12-09T01:13:26.703Z,37.80
2023-12-09T01:15:53.427Z,36.88
2023-12-09T01:18:22.588Z,34.17
2023-12-09T01:20:49.515Z,37.65
2023-12-09T01:23:16.250Z,39.28
2023-12-09T01:25:43.039Z,38.58
2023-12-09T01:28:11.959Z,40.65
2023-12-09T01:30:41.134Z,35.70
2023-12-09T01:33:10.403Z,39.00
2023-12-09T01:35:39.664Z,34.90
2023-12-09T01:38:06.451Z,38.58
2023-12-09T01:40:33.179Z,33.30
2023-12-09T01:42:59.966Z,34.75
2023-12-09T01:45:26.796Z,36.88
2023-12-09T01:47:54.062Z,43.05
2023-12-09T01:50:21.018Z,45.72
2023-12-09T01:52:49.960Z,37.90
2023-12-09T01:55:17.186Z,42.80
2023-12-09T01:57:44.171Z,38.85
2023-12-09T02:00:16.320Z,45.08
2023-12-09T02:02:45.502Z,43.95
2023-12-09T02:05:14.777Z,47.08
2023-12-09T02:07:43.650Z,46.20
2023-12-09T02:10:11.799Z,44.83
2023-12-09T02:12:53.528Z,52.92
2023-12-09T02:15:27.175Z,47.22
2023-12-09T02:18:03.096Z,46.28
2023-12-09T02:20:32.610Z,57.45
2023-12-09T02:23:12.228Z,53.05
2023-12-09T02:25:40.418Z,50.95
2023-12-09T02:28:10.515Z,49.20
2023-12-09T02:31:00.526Z,52.05
2023-12-09T02:33:28.810Z,48.75
2023-12-09T02:35:59.039Z,44.10
2023-12-09T02:38:29.704Z,49.22
2023-12-09T02:40:57.448Z,48.00
2023-12-09T02:43:24.093Z,39.30
2023-12-09T02:45:50.744Z,44.28
2023-12-09T02:48:17.527Z,38.05
2023-12-09T02:50:44.390Z,45.15
2023-12-09T02:53:15.307Z,42.53
2023-12-09T02:55:42.061Z,42.05
2023-12-09T02:58:08.882Z,35.78
2023-12-09T03:00:38.133Z,40.33
2023-12-09T03:03:05.128Z,44.45
2023-12-09T03:05:31.915Z,39.70
2023-12-09T03:07:58.650Z,37.45
2023-12-09T03:10:25.440Z,44.10
2023-12-09T03:12:54.407Z,43.35
2023-12-09T03:15:21.067Z,44.90
2023-12-09T03:17:47.968Z,51.40
2023-12-09T03:20:14.856Z,47.15
2023-12-09T03:22:43.671Z,43.90
2023-12-09T03:25:10.407Z,46.28
2023-12-09T03:27:37.180Z,44.35
2023-12-09T03:30:04.318Z,48.38
2023-12-09T03:32:31.370Z,41.22
2023-12-09T03:34:58.280Z,47.03
2023-12-09T03:37:24.990Z,49.88
2023-12-09T03:39:51.829Z,49.67
2023-12-09T03:42:20.801Z,43.47
2023-12-09T03:44:47.563Z,44.75
2023-12-09T03:47:21.856Z,55.88
2023-12-09T03:49:52.861Z,43.42
2023-12-09T03:52:19.680Z,50.42
2023-12-09T03:54:46.409Z,47.15
2023-12-09T03:57:14.790Z,44.92
2023-12-09T03:59:41.963Z,47.30
2023-12-09T04:02:10.904Z,40.55
2023-12-09T04:04:41.571Z,50.47
2023-12-09T04:07:08.542Z,46.17
2023-12-09T04:09:35.330Z,51.42
2023-12-09T04:12:02.102Z,52.83
2023-12-09T04:14:28.767Z,55.40
2023-12-09T04:16:57.712Z,46.30
2023-12-09T04:19:24.584Z,46.45
2023-12-09T04:21:52.958Z,44.75
2023-12-09T04:24:19.915Z,57.60
2023-12-09T04:26:46.780Z,56.97
2023-12-09T04:29:13.670Z,49.78
2023-12-09T04:31:40.594Z,65.60
2023-12-09T04:34:11.871Z,55.70
2023-12-09T04:36:38.813Z,60.15
2023-12-09T04:39:06.420Z,64.40
2023-12-09T04:41:33.156Z,63.10
2023-12-09T04:43:59.811Z,63.40
2023-12-09T04:46:26.632Z,65.40
2023-12-09T04:48:53.508Z,61.67
2023-12-09T04:51:20.847Z,63.65
2023-12-09T04:53:47.577Z,55.38
2023-12-09T04:56:14.346Z,59.28
2023-12-09T04:58:41.048Z,62.42
2023-12-09T05:01:07.793Z,65.10
2023-12-09T05:03:37.332Z,70.38
2023-12-09T05:06:05.448Z,65.13
2023-12-09T05:08:32.269Z,59.97
2023-12-09T05:11:01.143Z,69.40
2023-12-09T05:13:27.900Z,64.60
2023-12-09T05:15:54.578Z,67.80
2023-12-09T05:18:21.423Z,68.60
2023-12-09T05:20:48.324Z,68.13
2023-12-09T05:23:17.469Z,70.35
2023-12-09T05:25:44.942Z,61.85
2023-12-09T05:28:11.717Z,70.82
2023-12-09T05:30:38.432Z,63.17
2023-12-09T05:33:05.285Z,66.45
2023-12-09T05:35:32.127Z,65.93
2023-12-09T05:37:58.832Z,74.65
2023-12-09T05:40:25.556Z,65.10
2023-12-09T05:42:54.411Z,61.78
2023-12-09T05:45:21.157Z,54.47
2023-12-09T05:47:50.375Z,57.50
2023-12-09T05:50:17.207Z,53.75
2023-12-09T05:52:44.027Z,55.03
2023-12-09T05:55:10.864Z,48.50
2023-12-09T05:57:39.721Z,50.13
2023-12-09T06:00:07.361Z,47.42
2023-12-09T06:02:34.044Z,50.60
2023-12-09T06:05:00.785Z,49.85
2023-12-09T06:07:31.888Z,47.80
2023-12-09T06:10:00.824Z,56.38
2023-12-09T06:12:30.022Z,51.25
2023-12-09T06:14:56.932Z,50.70
2023-12-09T06:17:23.670Z,57.83
2023-12-09T06:19:50.512Z,48.58
2023-12-09T06:22:17.226Z,46.72
2023-12-09T06:24:47.334Z,44.80
2023-12-09T06:27:14.301Z,43.65
2023-12-09T06:29:41.002Z,44.72
2023-12-09T06:32:07.710Z,42.65
2023-12-09T06:34:34.496Z,45.42
2023-12-09T06:37:03.757Z,42.50
2023-12-09T06:39:30.606Z,44.45
2023-12-09T06:41:57.376Z,45.40
2023-12-09T06:44:26.222Z,53.00
2023-12-09T06:46:53.092Z,54.15
2023-12-09T06:49:19.974Z,49.38
2023-12-09T06:51:48.625Z,50.50
2023-12-09T06:54:15.286Z,57.15
2023-12-09T06:56:42.008Z,46.58
2023-12-09T06:59:11.460Z,58.35
2023-12-09T07:01:38.584Z,55.45
2023-12-09T07:04:10.513Z,45.70
2023-12-09T07:06:37.357Z,51.75
2023-12-09T07:09:04.136Z,53.15
2023-12-09T07:11:30.847Z,51.80
2023-12-09T07:13:57.559Z,45.83
2023-12-09T07:16:24.218Z,46.92
2023-12-09T07:19:00.092Z,44.97
2023-12-09T07:21:30.456Z,46.45
2023-12-09T07:23:57.298Z,46.80
2023-12-09T07:26:24.056Z,42.05
2023-12-09T07:28:55.738Z,45.83
2023-12-09T07:31:22.466Z,46.20
2023-12-09T07:33:49.776Z,44.05
2023-12-09T07:36:16.618Z,44.13
2023-12-09T07:38:45.652Z,41.08
2023-12-09T07:41:12.556Z,51.00
2023-12-09T07:43:41.509Z,41.92
2023-12-09T07:46:12.872Z,46.70
2023-12-09T07:48:40.694Z,41.20
2023-12-09T07:51:07.764Z,44.97
2023-12-09T07:53:34.479Z,48.75
2023-12-09T07:56:01.196Z,41.85
2023-12-09T07:58:27.914Z,45.17
2023-12-09T08:00:54.992Z,48.63
2023-12-09T08:03:21.888Z,47.00
2023-12-09T08:05:48.657Z,45.35
2023-12-09T08:08:17.663Z,54.67
2023-12-09T08:10:46.625Z,52.13
2023-12-09T08:13:15.631Z,53.75
2023-12-09T08:15:42.554Z,78.65
2023-12-09T08:18:11.616Z,70.07
2023-12-09T08:20:38.468Z,71.25
2023-12-09T08:23:05.159Z,53.47
2023-12-09T08:25:31.951Z,56.72
2023-12-09T08:27:58.991Z,54.40
2023-12-09T08:30:28.226Z,60.25
2023-12-09T08:32:57.475Z,58.67
2023-12-09T08:35:24.443Z,61.72
2023-12-09T08:37:51.202Z,60.50
2023-12-09T08:40:18.463Z,62.90
2023-12-09T08:42:48.638Z,52.95
2023-12-09T08:45:20.077Z,59.45
2023-12-09T08:47:47.103Z,58.03
2023-12-09T08:52:48.809Z,53.38
2023-12-09T08:55:16.732Z,52.38
2023-12-09T08:57:46.453Z,50.72
2023-12-09T09:00:15.146Z,52.45
2023-12-09T09:02:42.156Z,51.85
2023-12-09T09:05:09.813Z,48.70
2023-12-09T09:07:41.171Z,52.22
2023-12-09T09:10:09.361Z,53.90
2023-12-09T09:12:36.172Z,49.47
2023-12-09T09:15:06.819Z,45.92
2023-12-09T09:17:37.405Z,44.65
2023-12-09T09:20:06.786Z,46.90
2023-12-09T09:22:34.255Z,44.08
2023-12-09T09:25:01.004Z,42.08
2023-12-09T09:27:27.803Z,41.53
2023-12-09T09:29:54.745Z,38.90
2023-12-09T09:32:23.722Z,47.17
2023-12-09T09:34:50.627Z,40.80
2023-12-09T09:37:19.607Z,60.05
2023-12-09T09:39:46.444Z,43.65
2023-12-09T09:42:40.566Z,40.58
2023-12-09T09:45:09.264Z,41.85
2023-12-09T09:47:41.206Z,48.70
2023-12-09T09:50:11.931Z,40.75
2023-12-09T09:52:42.407Z,43.53
2023-12-09T09:55:10.042Z,45.03
2023-12-09T09:57:39.393Z,46.13
2023-12-09T10:00:18.046Z,43.55
2023-12-09T10:02:46.609Z,42.75
2023-12-09T10:05:17.732Z,42.50
2023-12-09T10:07:45.800Z,45.22
2023-12-09T10:10:14.687Z,42.10
2023-12-09T10:12:44.152Z,45.42
2023-12-09T10:15:15.800Z,46.03
2023-12-09T10:17:42.999Z,46.67
2023-12-09T10:20:11.716Z,57.05
2023-12-09T10:22:40.004Z,52.08
2023-12-09T10:25:09.813Z,45.78
2023-12-09T10:27:42.640Z,51.33
2023-12-09T10:30:12.433Z,49.25
2023-12-09T10:32:39.233Z,50.05
2023-12-09T10:35:06.747Z,49.10
2023-12-09T10:37:34.179Z,53.17
2023-12-09T10:40:07.554Z,47.70
2023-12-09T10:42:34.311Z,47.85
2023-12-09T10:45:05.006Z,52.70
2023-12-09T10:47:34.057Z,51.25
2023-12-09T10:50:01.946Z,48.63
2023-12-09T10:52:35.877Z,47.45
2023-12-09T10:55:06.672Z,49.67
2023-12-09T10:57:34.729Z,56.55
2023-12-09T11:00:06.355Z,45.88
2023-12-09T11:02:33.946Z,48.10
2023-12-09T11:05:03.172Z,47.80
2023-12-09T11:07:32.643Z,43.75
2023-12-09T11:10:01.586Z,41.55
2023-12-09T11:12:29.982Z,42.85
2023-12-09T11:15:01.460Z,46.88
2023-12-09T11:17:38.805Z,51.90
2023-12-09T11:20:17.080Z,46.35
2023-12-09T11:22:50.275Z,45.75
2023-12-09T11:25:27.278Z,41.20
2023-12-09T11:27:54.920Z,39.88
2023-12-09T11:30:31.564Z,36.10
2023-12-09T11:33:01.755Z,39.65
2023-12-09T11:35:29.601Z,37.20
2023-12-09T11:37:59.347Z,41.90
2023-12-09T11:40:30.059Z,34.38
2023-12-09T11:42:58.955Z,33.30
2023-12-09T11:45:27.102Z,38.35
2023-12-09T11:47:58.182Z,31.75
2023-12-09T11:50:27.600Z,36.05
2023-12-09T11:52:54.481Z,34.90
2023-12-09T11:55:21.350Z,31.83
2023-12-09T11:57:50.481Z,28.27
2023-12-09T12:00:17.755Z,30.08
2023-12-09T12:02:49.696Z,25.95
2023-12-09T12:05:16.805Z,18.90
2023-12-09T12:07:43.602Z,24.15
2023-12-09T12:10:11.408Z,24.05
2023-12-09T12:12:38.339Z,20.52
2023-12-09T12:15:06.230Z,22.38
2023-12-09T12:17:40.737Z,18.92
2023-12-09T12:20:12.632Z,18.33
2023-12-09T12:22:44.809Z,16.70
2023-12-09T12:25:14.081Z,19.38
2023-12-09T12:27:46.046Z,15.50
2023-12-09T12:30:14.584Z,13.95
2023-12-09T12:32:43.659Z,15.98
2023-12-09T12:35:13.145Z,15.50
2023-12-09T12:37:39.974Z,22.52
2023-12-09T12:40:07.790Z,12.60
2023-12-09T12:42:34.625Z,21.38
2023-12-09T12:45:04.093Z,12.80
2023-12-09T12:47:30.901Z,19.08
2023-12-09T12:49:57.726Z,15.55
2023-12-09T12:52:26.981Z,14.30
2023-12-09T12:54:53.905Z,15.15
2023-12-09T12:57:20.732Z,13.93
2023-12-09T12:59:50.053Z,17.17
2023-12-09T13:02:16.915Z,15.50
2023-12-09T13:04:47.000Z,11.52
2023-12-09T13:07:13.822Z,10.13
2023-12-09T13:09:40.820Z,11.50
2023-12-09T13:12:08.772Z,9.35
2023-12-09T13:14:35.652Z,7.75
2023-12-09T13:17:06.096Z,9.45
2023-12-09T13:19:33.016Z,10.23
2023-12-09T13:22:06.577Z,12.68
2023-12-09T13:24:33.655Z,11.15
2023-12-09T13:27:00.631Z,10.80
2023-12-09T13:29:27.604Z,7.28
2023-12-09T13:31:58.397Z,12.05
2023-12-09T13:34:28.022Z,7.70
2023-12-09T13:36:57.486Z,11.05
2023-12-09T13:39:26.989Z,11.15
2023-12-09T13:41:54.338Z,10.13
2023-12-09T13:44:21.425Z,11.45
2023-12-09T13:46:50.716Z,11.57
2023-12-09T13:49:17.666Z,11.23
2023-12-09T13:51:44.652Z,13.55
2023-12-09T13:54:11.545Z,9.65
2023-12-09T13:56:40.721Z,10.63
2023-12-09T13:59:10.501Z,10.05
2023-12-09T14:01:37.315Z,10.25
2023-12-09T14:04:09.084Z,9.25
2023-12-09T14:06:38.947Z,9.45
2023-12-09T14:09:08.678Z,10.63
2023-12-09T14:11:39.657Z,13.80
2023-12-09T14:14:07.453Z,9.60
2023-12-09T14:16:36.379Z,9.50
2023-12-09T14:19:04.425Z,6.25
2023-12-09T14:21:34.153Z,9.43
2023-12-09T14:24:01.105Z,9.13
2023-12-09T14:26:32.026Z,8.18
2023-12-09T14:29:00.296Z,5.68
2023-12-09T14:31:29.388Z,10.00
2023-12-09T14:33:56.499Z,6.47
2023-12-09T14:36:23.547Z,5.75
2023-12-09T14:38:53.371Z,7.32
2023-12-09T14:41:20.579Z,3.38
2023-12-09T14:43:49.368Z,8.18
2023-12-09T14:46:18.406Z,7.65
2023-12-09T14:48:47.607Z,6.07
2023-12-09T14:51:14.521Z,2.95
2023-12-09T14:53:41.357Z,5.10
2023-12-09T14:56:08.844Z,3.50
2023-12-09T14:58:36.787Z,4.03
2023-12-09T15:01:05.219Z,5.53
2023-12-09T15:03:32.340Z,8.27
2023-12-09T15:05:59.322Z,4.78
2023-12-09T15:08:28.508Z,1.70
2023-12-09T15:10:55.282Z,6.38
2023-12-09T15:13:22.269Z,1.92
2023-12-09T15:15:51.343Z,3.00
2023-12-09T15:18:18.317Z,5.45
2023-12-09T15:20:45.996Z,4.60
2023-12-09T15:23:15.393Z,3.05
2023-12-09T15:25:42.284Z,3.88
2023-12-09T15:28:09.289Z,4.40
2023-12-09T15:30:36.113Z,2.70
2023-12-09T15:33:05.644Z,4.22
2023-12-09T15:35:35.168Z,5.18
2023-12-09T15:38:03.229Z,2.42
2023-12-09T15:40:32.270Z,4.40
2023-12-09T15:42:59.126Z,3.88
2023-12-09T15:45:26.025Z,3.00
2023-12-09T15:47:52.894Z,1.73
2023-12-09T15:50:20.415Z,4.05
2023-12-09T15:52:47.386Z,3.33
2023-12-09T15:55:16.334Z,2.00
2023-12-09T15:57:43.854Z,3.17
2023-12-09T16:00:11.608Z,3.60
2023-12-09T16:02:43.325Z,6.40
2023-12-09T16:05:11.637Z,1.77
2023-12-09T16:07:40.963Z,4.10
2023-12-09T16:10:08.222Z,5.28
2023-12-09T16:12:35.104Z,3.05
2023-12-09T16:15:05.772Z,5.72
2023-12-09T16:17:32.743Z,5.25
2023-12-09T16:19:59.567Z,5.28
2023-12-09T16:22:26.459Z,4.78
2023-12-09T16:24:53.462Z,5.38
2023-12-09T16:27:20.276Z,4.45
2023-12-09T16:29:49.261Z,4.47
2023-12-09T16:32:16.018Z,5.45
2023-12-09T16:34:43.057Z,4.82
2023-12-09T16:37:10.310Z,4.45
2023-12-09T16:39:37.182Z,4.05
2023-12-09T16:42:04.367Z,5.57
2023-12-09T16:44:31.086Z,4.55
2023-12-09T16:46:57.938Z,5.55
2023-12-09T16:49:24.917Z,3.05
2023-12-09T16:51:51.835Z,4.45
2023-12-09T16:54:18.693Z,7.75
2023-12-09T16:56:45.612Z,3.08
2023-12-09T16:59:12.362Z,4.65
2023-12-09T17:01:39.682Z,2.85
2023-12-09T17:04:09.592Z,6.05
2023-12-09T17:06:36.856Z,4.90
2023-12-09T17:09:06.567Z,3.85
2023-12-09T17:11:33.460Z,7.88
2023-12-09T17:14:00.487Z,6.55
2023-12-09T17:16:27.271Z,4.18
2023-12-09T17:18:54.333Z,4.63
2023-12-09T17:21:21.533Z,4.03
2023-12-09T17:23:48.361Z,3.50
2023-12-09T17:26:15.391Z,5.63
2023-12-09T17:28:44.680Z,5.68
2023-12-09T17:31:11.593Z,3.97
2023-12-09T17:33:39.070Z,3.15
2023-12-09T17:36:06.349Z,4.43
2023-12-09T17:38:33.383Z,3.53
2023-12-09T17:41:00.371Z,6.95
2023-12-09T17:43:27.205Z,6.40
2023-12-09T17:45:54.931Z,3.80
2023-12-09T17:48:24.549Z,5.57
2023-12-09T17:50:54.425Z,5.82
2023-12-09T17:53:21.481Z,6.30
2023-12-09T17:55:48.362Z,5.05
2023-12-09T17:58:17.356Z,5.30
2023-12-09T18:00:44.649Z,3.20
2023-12-09T18:03:11.623Z,5.20
2023-12-09T18:05:40.632Z,4.07
2023-12-09T18:08:07.900Z,7.13
2023-12-09T18:10:34.796Z,3.67
2023-12-09T18:13:03.795Z,5.88
2023-12-09T18:15:31.725Z,3.40
2023-12-09T18:17:58.985Z,6.22
2023-12-09T18:20:25.815Z,5.82
2023-12-09T18:22:56.921Z,3.85
2023-12-09T18:25:26.808Z,3.90
2023-12-09T18:27:53.897Z,6.32
2023-12-09T18:30:21.667Z,6.82
2023-12-09T18:32:51.566Z,6.80
2023-12-09T18:35:18.991Z,4.15
2023-12-09T18:37:45.949Z,3.95
2023-12-09T18:40:13.643Z,3.92
2023-12-09T18:42:43.194Z,4.38
2023-12-09T18:45:10.818Z,5.93
2023-12-09T18:47:41.412Z,4.18
2023-12-09T18:50:09.122Z,3.22
2023-12-09T18:52:35.996Z,3.53
2023-12-09T18:55:03.195Z,4.75
2023-12-09T18:57:30.983Z,4.40
2023-12-09T18:59:57.926Z,3.78
2023-12-09T19:02:24.682Z,6.90
2023-12-09T19:04:51.732Z,5.50
2023-12-09T19:07:19.453Z,2.42
2023-12-09T19:09:48.517Z,3.63
2023-12-09T19:12:15.546Z,4.05
2023-12-09T19:14:42.857Z,3.40
2023-12-09T19:17:10.228Z,2.70
2023-12-09T19:19:37.152Z,2.90
2023-12-09T19:22:04.555Z,3.30
2023-12-09T19:24:34.073Z,3.42
2023-12-09T19:27:01.301Z,5.80
2023-12-09T19:29:28.157Z,2.70
2023-12-09T19:31:57.466Z,2.47
2023-12-09T19:34:25.202Z,3.85
2023-12-09T19:36:52.567Z,3.08
2023-12-09T19:39:24.122Z,3.17
2023-12-09T19:41:50.918Z,4.78
2023-12-09T19:44:17.782Z,4.45
2023-12-09T19:46:44.612Z,3.53
2023-12-09T19:49:11.549Z,3.42
2023-12-09T19:51:38.440Z,4.05
2023-12-09T19:54:07.839Z,3.13
2023-12-09T19:56:34.933Z,5.43
2023-12-09T19:59:02.135Z,4.43
2023-12-09T20:01:29.075Z,3.85
2023-12-09T20:03:56.143Z,4.25
2023-12-09T20:06:23.110Z,3.35
2023-12-09T20:08:49.907Z,4.35
2023-12-09T20:11:19.132Z,4.05
2023-12-09T20:13:45.982Z,4.60
2023-12-09T20:16:12.964Z,5.05
2023-12-09T20:18:39.876Z,10.02
2023-12-09T20:21:08.017Z,4.57
2023-12-09T20:23:34.982Z,3.97
2023-12-09T20:26:02.301Z,5.20
2023-12-09T20:28:29.689Z,4.70
2023-12-09T20:30:58.732Z,4.13
2023-12-09T20:33:25.813Z,4.90
2023-12-09T20:35:55.531Z,5.25
2023-12-09T20:38:22.622Z,6.00
2023-12-09T20:40:55.300Z,4.25
2023-12-09T20:43:22.417Z,4.65
2023-12-09T20:45:50.374Z,3.45
2023-12-09T20:48:20.517Z,2.65
2023-12-09T20:50:47.730Z,3.22
2023-12-09T20:53:14.622Z,1.70
2023-12-09T20:55:41.552Z,3.05
2023-12-09T20:58:08.528Z,5.82
2023-12-09T21:00:35.630Z,2.45
2023-12-09T21:03:04.310Z,1.73
2023-12-09T21:05:31.478Z,1.38
2023-12-09T21:07:58.507Z,1.00
2023-12-09T21:10:25.410Z,1.48
2023-12-09T21:12:52.615Z,1.08
2023-12-09T21:15:22.505Z,0.88
2023-12-09T21:17:49.604Z,2.65
2023-12-09T21:20:19.036Z,4.50
2023-12-09T21:22:45.866Z,0.98
2023-12-09T21:25:13.579Z,1.58
2023-12-09T21:27:43.901Z,2.95
2023-12-09T21:30:13.868Z,2.03
2023-12-09T21:32:42.748Z,4.18
2023-12-09T21:35:14.656Z,4.20
2023-12-09T21:37:44.753Z,4.25
2023-12-09T21:40:11.976Z,4.57
2023-12-09T21:42:39.187Z,9.63
2023-12-09T21:45:06.692Z,3.15
2023-12-09T21:47:35.561Z,9.38
2023-12-09T21:50:07.230Z,10.05
2023-12-09T21:52:34.051Z,12.48
2023-12-09T21:55:00.830Z,12.70
2023-12-09T21:57:28.810Z,16.08
2023-12-09T21:59:55.784Z,17.60
2023-12-09T22:02:22.590Z,12.07
2023-12-09T22:04:49.438Z,16.35
2023-12-09T22:07:16.156Z,17.17
2023-12-09T22:09:42.964Z,16.58
2023-12-09T22:12:09.864Z,19.10
2023-12-09T22:14:39.207Z,14.48
2023-12-09T22:17:06.497Z,17.13
2023-12-09T22:19:33.397Z,12.35
2023-12-09T22:22:00.484Z,21.45
2023-12-09T22:24:29.177Z,17.45
2023-12-09T22:26:56.171Z,27.85
2023-12-09T22:29:23.251Z,27.48
2023-12-09T22:31:52.146Z,14.77
2023-12-09T22:34:19.029Z,24.35
2023-12-09T22:36:46.020Z,21.45
2023-12-09T22:39:13.924Z,18.60
2023-12-09T22:41:43.036Z,25.48
2023-12-09T22:44:09.881Z,22.48
2023-12-09T22:46:36.844Z,26.08
2023-12-09T22:49:04.058Z,31.30
2023-12-09T22:51:33.185Z,22.30
2023-12-09T22:54:02.221Z,21.40
2023-12-09T22:56:31.043Z,30.65
2023-12-09T22:59:01.847Z,19.40
2023-12-09T23:01:36.090Z,24.35
2023-12-09T23:04:03.216Z,26.00
2023-12-09T23:06:32.446Z,23.30
2023-12-09T23:08:59.536Z,21.90
2023-12-09T23:11:26.656Z,24.10
2023-12-09T23:13:53.457Z,32.67
2023-12-09T23:16:20.275Z,21.92
2023-12-09T23:18:47.260Z,28.70
2023-12-09T23:21:14.298Z,23.73
2023-12-09T23:23:43.701Z,23.77
2023-12-09T23:26:10.508Z,33.92
2023-12-09T23:28:37.210Z,32.88
2023-12-09T23:31:04.189Z,35.45
2023-12-09T23:33:33.982Z,31.30
2023-12-09T23:36:00.865Z,29.33
2023-12-09T23:38:27.667Z,40.90
2023-12-09T23:40:54.419Z,35.70
2023-12-09T23:43:23.616Z,43.05
2023-12-09T23:45:50.451Z,28.88
2023-12-09T23:48:18.988Z,34.75
2023-12-09T23:50:48.892Z,41.40
2023-12-09T23:53:18.013Z,33.85
2023-12-09T23:55:44.817Z,37.58
2023-12-09T23:58:15.637Z,43.83
